Time;durP1;ratioP1;P1;durP2;ratioP2;P2;SDS_P1;SDS_P2;PMS_P1;PMS_P2;Temp;Humidity;BMP_temperature;BMP_pressure;BME280_temperature;BME280_humidity;BME280_pressure;Samples;Min_cycle;Max_cycle;Signal;HPM_P1;HPM_P2
2022/07/31 00:01:50;;;;;;;2.23;1.50;;;26.60;68.50;;;;;;5073538;28;20468;-81
2022/07/31 00:04:17;;;;;;;1.97;1.50;;;26.60;68.50;;;;;;5073660;28;20448;-88
2022/07/31 00:06:44;;;;;;;1.40;1.30;;;26.60;68.50;;;;;;5073599;28;20540;-82
2022/07/31 00:09:10;;;;;;;1.50;1.40;;;26.60;68.50;;;;;;5073575;28;20489;-82
2022/07/31 00:11:37;;;;;;;1.80;1.70;;;26.60;68.50;;;;;;5073673;28;20837;-81
2022/07/31 00:14:06;;;;;;;1.67;1.57;;;26.60;68.50;;;;;;5073439;28;20524;-81
2022/07/31 00:16:33;;;;;;;1.60;1.50;;;26.60;69.30;;;;;;5073629;28;20533;-81
2022/07/31 00:18:59;;;;;;;2.07;1.97;;;26.60;68.50;;;;;;5073436;28;20819;-81
2022/07/31 00:21:26;;;;;;;1.90;1.80;;;26.60;68.40;;;;;;5073325;28;20441;-82
2022/07/31 00:23:53;;;;;;;2.13;1.93;;;26.60;68.40;;;;;;5073293;28;20528;-81
2022/07/31 00:26:20;;;;;;;2.00;1.90;;;26.60;69.20;;;;;;5073316;28;20437;-82
2022/07/31 00:28:47;;;;;;;1.80;1.70;;;26.60;68.40;;;;;;5073087;28;20577;-82
2022/07/31 00:31:17;;;;;;;1.80;1.70;;;26.60;68.40;;;;;;5073297;28;20460;-82
2022/07/31 00:33:44;;;;;;;1.80;1.60;;;26.60;68.40;;;;;;5073414;28;20441;-81
2022/07/31 00:36:10;;;;;;;1.90;1.70;;;26.60;68.40;;;;;;5073186;28;20528;-82
2022/07/31 00:38:37;;;;;;;1.80;1.70;;;26.60;68.50;;;;;;5072970;28;20531;-82
2022/07/31 00:41:04;;;;;;;1.60;1.50;;;26.60;68.50;;;;;;5073129;28;20536;-82
2022/07/31 00:43:31;;;;;;;1.70;1.60;;;26.60;68.50;;;;;;5073212;28;20524;-82
2022/07/31 00:45:58;;;;;;;1.97;1.77;;;26.60;68.50;;;;;;5073087;28;20496;-82
2022/07/31 00:48:26;;;;;;;1.63;1.53;;;26.60;68.50;;;;;;5073064;28;20905;-82
2022/07/31 00:50:53;;;;;;;1.87;1.77;;;26.60;69.30;;;;;;5072908;28;20556;-82
2022/07/31 00:53:20;;;;;;;1.70;1.60;;;26.60;68.50;;;;;;5073139;28;20441;-82
2022/07/31 00:55:47;;;;;;;1.80;1.70;;;26.60;68.40;;;;;;5073104;28;20531;-82
2022/07/31 00:58:14;;;;;;;1.70;1.60;;;26.60;68.40;;;;;;5072924;28;20443;-82
2022/07/31 01:00:41;;;;;;;1.50;1.40;;;26.60;68.50;;;;;;5073005;28;20449;-82
2022/07/31 01:03:07;;;;;;;1.70;1.60;;;26.60;68.50;;;;;;5072960;28;20443;-82
2022/07/31 01:05:36;;;;;;;1.80;1.70;;;26.60;68.50;;;;;;5072893;28;20531;-82
2022/07/31 01:08:03;;;;;;;1.70;1.60;;;26.60;68.50;;;;;;5073160;28;20476;-82
2022/07/31 01:10:41;;;;;;;2.23;2.10;;;26.60;68.50;;;;;;5077031;28;20437;-82
2022/07/31 01:13:13;;;;;;;1.73;1.57;;;26.60;68.50;;;;;;5076892;28;20508;-82
2022/07/31 01:15:41;;;;;;;2.07;1.97;;;26.60;68.50;;;;;;5076971;28;20449;-82
2022/07/31 01:18:09;;;;;;;1.83;1.73;;;26.60;68.50;;;;;;5076801;28;20468;-82
2022/07/31 01:20:42;;;;;;;1.80;1.70;;;26.60;68.50;;;;;;5076752;28;20527;-82
2022/07/31 01:23:28;;;;;;;1.80;1.70;;;26.60;68.50;;;;;;5076805;28;20498;-82
2022/07/31 01:26:05;;;;;;;1.97;1.87;;;26.60;68.40;;;;;;5076724;28;20490;-82
2022/07/31 01:28:53;;;;;;;1.83;1.73;;;26.60;68.50;;;;;;5076690;28;20504;-82
2022/07/31 01:31:25;;;;;;;2.40;2.20;;;26.60;68.50;;;;;;5078258;28;20480;-82
2022/07/31 01:33:59;;;;;;;2.30;2.03;;;26.60;68.50;;;;;;5079160;28;20492;-82
2022/07/31 01:36:33;;;;;;;2.10;2.00;;;26.60;68.50;;;;;;5076619;28;20525;-81
2022/07/31 01:39:00;;;;;;;1.93;1.83;;;26.60;68.50;;;;;;5076383;28;20506;-81
2022/07/31 01:41:33;;;;;;;1.80;1.70;;;26.60;69.30;;;;;;5076397;28;20437;-82
2022/07/31 01:44:04;;;;;;;2.07;1.80;;;26.60;68.40;;;;;;5076371;28;20510;-82
2022/07/31 01:46:33;;;;;;;1.97;1.87;;;26.60;68.30;;;;;;5076287;28;20455;-81
2022/07/31 01:49:02;;;;;;;1.80;1.70;;;26.60;68.30;;;;;;5076293;28;20560;-81
2022/07/31 01:51:30;;;;;;;1.90;1.80;;;26.60;68.40;;;;;;5075958;28;20469;-82
2022/07/31 01:54:00;;;;;;;2.00;1.90;;;26.60;68.30;;;;;;5076147;28;20436;-81
2022/07/31 01:56:28;;;;;;;2.10;2.00;;;26.60;68.40;;;;;;5076141;28;20437;-82
2022/07/31 01:58:56;;;;;;;2.20;2.03;;;26.60;68.40;;;;;;5076008;28;20451;-81
2022/07/31 02:01:25;;;;;;;2.10;2.00;;;26.60;68.40;;;;;;5075923;28;20518;-82
2022/07/31 02:03:53;;;;;;;2.53;2.33;;;26.60;68.40;;;;;;5076023;28;20468;-83
2022/07/31 02:06:22;;;;;;;2.27;2.17;;;26.60;68.50;;;;;;5075915;28;20445;-82
2022/07/31 02:08:52;;;;;;;2.80;2.40;;;26.60;69.30;;;;;;5075906;28;20484;-82
2022/07/31 02:11:20;;;;;;;2.30;2.10;;;26.60;68.50;;;;;;5075884;28;20443;-82
2022/07/31 02:13:48;;;;;;;2.20;2.07;;;26.60;68.50;;;;;;5075667;28;20451;-84
2022/07/31 02:16:17;;;;;;;2.10;2.00;;;26.60;68.50;;;;;;5075753;28;20447;-81
2022/07/31 02:18:47;;;;;;;2.40;2.20;;;26.60;68.50;;;;;;5075490;28;20443;-82
2022/07/31 02:21:14;;;;;;;2.20;2.00;;;26.60;68.50;;;;;;5075504;28;20913;-82
2022/07/31 02:23:41;;;;;;;2.27;2.10;;;26.60;68.50;;;;;;5075671;28;20540;-82
2022/07/31 02:26:08;;;;;;;2.20;2.00;;;26.60;68.50;;;;;;5075583;28;20429;-83
2022/07/31 02:28:40;;;;;;;2.73;2.53;;;26.60;68.50;;;;;;5075546;28;20461;-82
2022/07/31 02:31:11;;;;;;;2.17;1.93;;;26.60;68.50;;;;;;5075530;28;20467;-81
2022/07/31 02:33:41;;;;;;;1.90;1.80;;;26.60;68.50;;;;;;5075452;28;20541;-82
2022/07/31 02:36:12;;;;;;;2.03;1.87;;;26.60;68.50;;;;;;5075605;28;20520;-83
2022/07/31 02:38:42;;;;;;;2.00;1.90;;;26.60;68.50;;;;;;5075297;28;20531;-82
2022/07/31 02:41:11;;;;;;;2.00;1.83;;;26.60;68.40;;;;;;5075214;28;20540;-82
2022/07/31 02:43:39;;;;;;;1.80;1.70;;;26.60;68.40;;;;;;5075362;28;20787;-83
2022/07/31 02:46:06;;;;;;;2.40;2.20;;;26.60;68.40;;;;;;5075049;28;20536;-82
2022/07/31 02:48:35;;;;;;;2.47;2.30;;;26.60;68.30;;;;;;5075116;28;20859;-82
2022/07/31 02:51:02;;;;;;;2.40;1.93;;;26.60;68.30;;;;;;5075085;28;20564;-82
2022/07/31 02:53:31;;;;;;;1.80;1.70;;;26.60;68.40;;;;;;5074913;28;20939;-83
2022/07/31 02:55:59;;;;;;;1.80;1.70;;;26.60;68.40;;;;;;5074895;28;20524;-82
2022/07/31 02:58:27;;;;;;;1.73;1.63;;;26.60;68.40;;;;;;5074758;28;20444;-82
2022/07/31 03:01:00;;;;;;;1.90;1.80;;;26.60;68.40;;;;;;5074895;28;20464;-82
2022/07/31 03:03:27;;;;;;;2.00;1.90;;;26.60;68.40;;;;;;5074855;28;20473;-82
2022/07/31 03:05:54;;;;;;;1.97;1.77;;;26.60;68.40;;;;;;5075051;28;20510;-82
2022/07/31 03:08:21;;;;;;;2.17;1.80;;;26.60;68.50;;;;;;5074875;28;20540;-83
2022/07/31 03:10:49;;;;;;;1.50;1.40;;;26.60;68.50;;;;;;5074912;28;21025;-82
2022/07/31 03:13:18;;;;;;;2.00;1.90;;;26.60;68.50;;;;;;5074613;28;20437;-82
2022/07/31 03:15:46;;;;;;;1.73;1.63;;;26.60;68.50;;;;;;5074690;28;21000;-89
2022/07/31 03:18:13;;;;;;;1.90;1.70;;;26.60;68.50;;;;;;5074541;28;20441;-82
2022/07/31 03:20:42;;;;;;;1.90;1.73;;;26.60;68.50;;;;;;5074522;28;20485;-82
2022/07/31 03:23:11;;;;;;;1.60;1.50;;;26.60;68.50;;;;;;5074354;28;20445;-82
2022/07/31 03:25:38;;;;;;;1.70;1.60;;;26.60;68.50;;;;;;5074515;28;21003;-82
2022/07/31 03:28:07;;;;;;;1.80;1.70;;;26.60;68.50;;;;;;5074107;28;20425;-82
2022/07/31 03:30:34;;;;;;;1.80;1.70;;;26.60;68.50;;;;;;5073969;28;20894;-82
2022/07/31 03:33:02;;;;;;;1.83;1.73;;;26.60;68.50;;;;;;5073796;28;20484;-82
2022/07/31 03:35:29;;;;;;;1.60;1.50;;;26.60;68.50;;;;;;5074134;28;20448;-82
2022/07/31 03:37:56;;;;;;;1.90;1.80;;;26.60;68.50;;;;;;5073925;28;20520;-82
2022/07/31 03:40:23;;;;;;;1.73;1.63;;;26.60;68.50;;;;;;5074125;28;20532;-83
2022/07/31 03:42:50;;;;;;;1.80;1.70;;;26.60;68.50;;;;;;5074270;28;20525;-89
2022/07/31 03:45:20;;;;;;;2.17;1.70;;;26.60;68.50;;;;;;5074044;28;20443;-83
2022/07/31 03:47:47;;;;;;;1.90;1.80;;;26.60;68.50;;;;;;5074189;28;20445;-82
2022/07/31 03:50:16;;;;;;;1.97;1.87;;;26.60;68.50;;;;;;5073656;28;20580;-83
2022/07/31 03:52:44;;;;;;;1.63;1.53;;;26.60;68.60;;;;;;5074019;28;20766;-82
2022/07/31 03:55:10;;;;;;;1.80;1.70;;;26.60;68.60;;;;;;5073879;28;20543;-83
2022/07/31 03:57:38;;;;;;;1.70;1.60;;;26.60;68.60;;;;;;5073548;28;20535;-82
2022/07/31 04:00:08;;;;;;;2.03;1.83;;;26.60;68.60;;;;;;5073698;28;20483;-90
2022/07/31 04:02:36;;;;;;;1.70;1.60;;;26.60;69.50;;;;;;5073037;28;20444;-83
2022/07/31 04:05:03;;;;;;;1.50;1.40;;;26.60;68.60;;;;;;5070231;28;20437;-81
2022/07/31 04:07:30;;;;;;;1.70;1.60;;;26.60;68.70;;;;;;5072971;28;20433;-81
2022/07/31 04:10:12;;;;;;;1.67;1.57;;;26.60;68.70;;;;;;5072783;28;20570;-81
2022/07/31 04:12:39;;;;;;;1.50;1.40;;;26.60;68.60;;;;;;5072059;28;20433;-82
2022/07/31 04:15:07;;;;;;;1.53;1.43;;;26.60;68.80;;;;;;5072988;28;20459;-82
2022/07/31 04:17:34;;;;;;;1.70;1.60;;;26.60;68.80;;;;;;5073011;28;20532;-88
2022/07/31 04:20:02;;;;;;;1.57;1.47;;;26.60;68.80;;;;;;5072717;28;20456;-81
2022/07/31 04:22:29;;;;;;;1.83;1.70;;;26.60;68.80;;;;;;5072861;28;20936;-81
2022/07/31 04:24:56;;;;;;;1.50;1.40;;;26.60;68.90;;;;;;5072922;28;20425;-82
2022/07/31 04:27:23;;;;;;;1.50;1.40;;;26.60;68.80;;;;;;5072868;28;20472;-81
2022/07/31 04:29:49;;;;;;;1.47;1.37;;;26.60;68.80;;;;;;5072608;28;20548;-81
2022/07/31 04:32:16;;;;;;;1.40;1.30;;;26.60;68.80;;;;;;5072914;28;20810;-82
2022/07/31 04:34:43;;;;;;;1.67;1.57;;;26.60;68.80;;;;;;5072621;28;21021;-88
2022/07/31 04:37:11;;;;;;;1.63;1.53;;;26.60;68.80;;;;;;5066789;28;20882;-81
2022/07/31 04:39:38;;;;;;;1.70;1.60;;;26.60;68.80;;;;;;5066458;28;20471;-88
2022/07/31 04:42:06;;;;;;;1.60;1.50;;;26.60;68.90;;;;;;5069846;28;20429;-89
2022/07/31 04:44:32;;;;;;;1.70;1.60;;;26.60;68.90;;;;;;5072669;28;20436;-88
2022/07/31 04:47:00;;;;;;;1.60;1.50;;;26.50;68.90;;;;;;5072887;28;20536;-81
2022/07/31 04:49:29;;;;;;;1.77;1.67;;;26.60;69.00;;;;;;5072428;28;20739;-86
2022/07/31 04:51:56;;;;;;;1.70;1.60;;;26.50;68.90;;;;;;5072078;28;20465;-81
2022/07/31 04:54:24;;;;;;;1.50;1.40;;;26.50;68.90;;;;;;5072394;28;20520;-81
2022/07/31 04:56:54;;;;;;;1.50;1.40;;;26.60;69.00;;;;;;5072359;28;20443;-81
2022/07/31 04:59:22;;;;;;;1.53;1.43;;;26.60;69.00;;;;;;5072193;28;20433;-81
2022/07/31 05:01:50;;;;;;;2.07;1.60;;;26.50;68.90;;;;;;5072252;28;20524;-81
2022/07/31 05:04:18;;;;;;;1.60;1.50;;;26.60;69.00;;;;;;5073127;28;20502;-82
2022/07/31 05:06:46;;;;;;;1.73;1.50;;;26.60;68.90;;;;;;5070621;28;20533;-81
2022/07/31 05:09:15;;;;;;;2.00;1.90;;;26.60;68.80;;;;;;5072167;28;20443;-82
2022/07/31 05:11:44;;;;;;;1.53;1.43;;;26.60;68.90;;;;;;5072348;28;20484;-88
2022/07/31 05:14:12;;;;;;;1.40;1.30;;;26.60;68.90;;;;;;5073025;28;20444;-82
2022/07/31 05:16:39;;;;;;;1.73;1.63;;;26.60;68.80;;;;;;5072976;28;20441;-81
2022/07/31 05:19:06;;;;;;;1.40;1.30;;;26.60;68.90;;;;;;5072339;28;20479;-82
2022/07/31 05:21:33;;;;;;;1.40;1.30;;;26.50;68.80;;;;;;5072627;28;20535;-82
2022/07/31 05:24:01;;;;;;;1.40;1.30;;;26.60;68.90;;;;;;5071162;28;20527;-82
2022/07/31 05:26:29;;;;;;;1.20;1.10;;;26.60;68.90;;;;;;5070752;28;20548;-82
2022/07/31 05:28:58;;;;;;;1.63;1.53;;;26.50;68.80;;;;;;5072642;28;21027;-82
2022/07/31 05:31:26;;;;;;;1.50;1.40;;;26.60;69.00;;;;;;5072522;28;20498;-84
2022/07/31 05:33:53;;;;;;;1.40;1.30;;;26.60;69.00;;;;;;5072825;28;20436;-92
2022/07/31 05:36:20;;;;;;;1.80;1.70;;;26.50;68.90;;;;;;5072159;28;20550;-84
2022/07/31 05:38:47;;;;;;;1.53;1.40;;;26.60;69.00;;;;;;5072353;28;20451;-85
2022/07/31 05:41:14;;;;;;;8.40;2.10;;;26.60;69.00;;;;;;5071077;28;20448;-84
2022/07/31 05:43:41;;;;;;;2.30;2.10;;;26.60;68.90;;;;;;5071588;28;20452;-85
2022/07/31 05:46:12;;;;;;;3.60;1.83;;;26.50;69.00;;;;;;5071775;28;20441;-82
2022/07/31 05:48:39;;;;;;;3.60;2.40;;;26.60;69.20;;;;;;5070355;28;20502;-91
2022/07/31 05:51:09;;;;;;;1.90;1.80;;;26.50;69.00;;;;;;5070451;28;20488;-82
2022/07/31 05:53:36;;;;;;;3.87;2.23;;;26.60;69.10;;;;;;5072180;28;20861;-81
2022/07/31 05:56:03;;;;;;;2.43;2.17;;;26.50;68.90;;;;;;5075263;28;20441;-82
2022/07/31 05:58:30;;;;;;;3.67;2.30;;;26.50;68.80;;;;;;5076184;28;20432;-86
2022/07/31 06:00:57;;;;;;;2.70;2.27;;;26.50;68.90;;;;;;5076048;28;20547;-91
2022/07/31 06:03:27;;;;;;;3.47;2.30;;;26.50;69.00;;;;;;5075962;28;20785;-82
2022/07/31 06:05:54;;;;;;;5.70;2.20;;;26.50;69.00;;;;;;5075841;28;21062;-82
2022/07/31 06:08:21;;;;;;;3.93;2.13;;;26.50;69.00;;;;;;5073977;28;20465;-82
2022/07/31 06:10:48;;;;;;;3.27;2.67;;;26.50;69.30;;;;;;5074457;28;20576;-83
2022/07/31 06:13:15;;;;;;;3.03;2.83;;;26.50;69.50;;;;;;5073850;28;21074;-82
2022/07/31 06:15:42;;;;;;;2.90;2.40;;;26.50;69.40;;;;;;5073970;28;20544;-82
2022/07/31 06:18:09;;;;;;;3.90;2.20;;;26.50;69.30;;;;;;5074033;28;20503;-82
2022/07/31 06:20:37;;;;;;;4.53;2.70;;;26.50;69.30;;;;;;5073903;28;20853;-81
2022/07/31 06:23:04;;;;;;;5.77;2.43;;;26.50;69.30;;;;;;5075496;28;20433;-91
2022/07/31 06:25:32;;;;;;;2.80;2.60;;;26.50;69.20;;;;;;5075518;28;20479;-86
2022/07/31 06:27:59;;;;;;;2.53;2.33;;;26.50;69.20;;;;;;5075194;28;20916;-86
2022/07/31 07:09:44;;;;;;;5.50;2.90;;;26.40;70.10;;;;;;5018776;28;20484;-80
2022/07/31 07:12:11;;;;;;;2.33;2.13;;;26.40;70.20;;;;;;5071675;28;20487;-81
2022/07/31 07:14:38;;;;;;;6.40;2.60;;;26.40;70.20;;;;;;5073603;28;20800;-81
2022/07/31 07:17:05;;;;;;;2.47;2.27;;;26.40;70.10;;;;;;5074124;28;20552;-81
2022/07/31 07:19:32;;;;;;;2.20;2.00;;;26.50;70.10;;;;;;5074139;28;20536;-80
2022/07/31 07:21:59;;;;;;;2.40;1.77;;;26.50;70.00;;;;;;5074284;28;20437;-81
2022/07/31 07:24:26;;;;;;;3.10;1.97;;;26.50;70.10;;;;;;5074426;28;20437;-81
2022/07/31 07:26:54;;;;;;;2.37;2.03;;;26.50;70.00;;;;;;5073774;28;20527;-91
2022/07/31 07:29:23;;;;;;;1.73;1.63;;;26.50;70.00;;;;;;5072735;28;20511;-80
2022/07/31 07:31:50;;;;;;;3.70;2.30;;;26.50;70.00;;;;;;5072148;28;20641;-80
2022/07/31 07:34:17;;;;;;;1.90;1.80;;;26.50;70.00;;;;;;5072699;28;20455;-81
2022/07/31 07:36:44;;;;;;;1.70;1.60;;;26.50;70.00;;;;;;5072424;28;20539;-91
2022/07/31 07:39:10;;;;;;;1.90;1.80;;;26.50;70.00;;;;;;5072471;28;20542;-81
2022/07/31 07:41:37;;;;;;;2.30;2.10;;;26.50;70.10;;;;;;5072567;28;20979;-81
2022/07/31 07:44:06;;;;;;;2.63;2.17;;;26.50;70.20;;;;;;5074194;28;20467;-81
2022/07/31 07:46:33;;;;;;;1.87;1.77;;;26.50;70.10;;;;;;5074007;28;20440;-81
2022/07/31 07:49:01;;;;;;;1.83;1.70;;;26.60;70.20;;;;;;5074179;28;20465;-81
2022/07/31 07:51:28;;;;;;;2.27;1.80;;;26.60;70.20;;;;;;5073928;28;20559;-92
2022/07/31 07:53:54;;;;;;;2.30;2.10;;;26.50;70.10;;;;;;5073974;28;20445;-92
2022/07/31 07:56:21;;;;;;;2.03;1.93;;;26.50;71.10;;;;;;5073598;28;20619;-81
2022/07/31 07:58:48;;;;;;;2.20;2.00;;;26.60;70.20;;;;;;5074145;28;20444;-92
2022/07/31 08:01:18;;;;;;;2.50;1.53;;;26.60;70.20;;;;;;5073766;28;20811;-81
2022/07/31 08:03:45;;;;;;;2.27;2.00;;;26.50;70.10;;;;;;5074117;28;20437;-81
2022/07/31 08:06:12;;;;;;;2.03;1.83;;;26.50;70.90;;;;;;5074296;28;20527;-82
2022/07/31 08:08:39;;;;;;;2.60;2.10;;;26.60;70.20;;;;;;5073523;28;20869;-81
2022/07/31 08:11:05;;;;;;;2.33;1.77;;;26.60;70.10;;;;;;5073098;28;20531;-81
2022/07/31 08:13:32;;;;;;;3.10;2.10;;;26.50;70.00;;;;;;5073263;28;20447;-81
2022/07/31 08:15:59;;;;;;;2.27;2.07;;;26.60;70.00;;;;;;5073398;28;20535;-88
2022/07/31 08:18:28;;;;;;;2.90;2.17;;;26.60;70.00;;;;;;5073285;28;20532;-81
2022/07/31 08:20:55;;;;;;;2.20;2.00;;;26.60;70.00;;;;;;5073598;28;20584;-81
2022/07/31 08:23:22;;;;;;;2.30;1.90;;;26.60;70.00;;;;;;5073384;28;20528;-81
2022/07/31 08:25:49;;;;;;;1.80;1.70;;;26.60;70.00;;;;;;5073604;28;20524;-81
2022/07/31 08:28:16;;;;;;;1.63;1.53;;;26.50;69.80;;;;;;5073570;28;20476;-81
2022/07/31 08:30:43;;;;;;;2.17;1.97;;;26.60;70.00;;;;;;5073323;28;20836;-81
2022/07/31 08:33:10;;;;;;;4.53;2.13;;;26.60;69.90;;;;;;5073235;28;20516;-81
2022/07/31 08:35:38;;;;;;;2.10;1.90;;;26.60;69.90;;;;;;5073068;28;20444;-81
2022/07/31 08:38:05;;;;;;;1.87;1.40;;;26.60;69.90;;;;;;5073053;28;20476;-81
2022/07/31 08:40:32;;;;;;;2.27;2.07;;;26.60;69.90;;;;;;5073447;28;20523;-81
2022/07/31 08:42:59;;;;;;;1.70;1.60;;;26.60;69.90;;;;;;5073053;28;20447;-81
2022/07/31 08:45:27;;;;;;;1.90;1.80;;;26.60;69.90;;;;;;5073270;28;20498;-91
2022/07/31 08:47:56;;;;;;;2.13;1.80;;;26.60;69.90;;;;;;5073073;28;20444;-81
2022/07/31 08:50:24;;;;;;;1.80;1.67;;;26.60;69.90;;;;;;5072959;28;20474;-82
2022/07/31 08:52:54;;;;;;;2.10;1.80;;;26.60;69.90;;;;;;5073100;28;20533;-81
2022/07/31 08:55:22;;;;;;;2.03;1.80;;;26.60;69.80;;;;;;5073095;28;20517;-81
2022/07/31 08:57:49;;;;;;;2.23;1.97;;;26.60;69.80;;;;;;5072920;28;20853;-81
2022/07/31 09:00:18;;;;;;;2.60;1.87;;;26.60;69.90;;;;;;5073062;28;20548;-81
2022/07/31 09:02:45;;;;;;;1.87;1.77;;;26.60;69.80;;;;;;5073052;28;20448;-81
2022/07/31 09:05:12;;;;;;;1.70;1.60;;;26.60;69.80;;;;;;5073462;28;21018;-81
2022/07/31 09:07:39;;;;;;;1.83;1.73;;;26.60;69.80;;;;;;5073022;28;20453;-81
2022/07/31 09:10:20;;;;;;;1.80;1.60;;;26.50;70.60;;;;;;5072685;28;20464;-81
2022/07/31 09:12:47;;;;;;;1.93;1.57;;;26.60;69.80;;;;;;5072416;28;20567;-81
2022/07/31 09:15:22;;;;;;;2.43;1.60;;;26.60;69.80;;;;;;5073032;28;20555;-81
2022/07/31 09:17:49;;;;;;;1.70;1.60;;;26.60;69.80;;;;;;5072955;28;20472;-81
2022/07/31 09:20:21;;;;;;;2.13;1.60;;;26.50;69.70;;;;;;5072924;28;20527;-81
2022/07/31 09:22:52;;;;;;;1.97;1.87;;;26.60;69.80;;;;;;5073135;28;20483;-92
2022/07/31 09:25:20;;;;;;;2.03;1.93;;;26.60;69.90;;;;;;5073075;28;20464;-81
2022/07/31 09:27:50;;;;;;;1.83;1.50;;;26.60;69.80;;;;;;5072697;28;20463;-80
2022/07/31 09:30:16;;;;;;;1.77;1.67;;;26.50;69.70;;;;;;5074743;28;20535;-92
2022/07/31 09:32:44;;;;;;;2.00;1.73;;;26.60;69.80;;;;;;5076560;28;20511;-81
2022/07/31 09:35:13;;;;;;;1.73;1.63;;;26.60;69.80;;;;;;5076496;28;20433;-91
2022/07/31 09:37:40;;;;;;;1.40;1.30;;;26.60;69.80;;;;;;5076501;28;20535;-81
2022/07/31 09:40:08;;;;;;;1.83;1.73;;;26.50;69.70;;;;;;5076573;28;20581;-81
2022/07/31 09:42:38;;;;;;;1.97;1.70;;;26.60;69.80;;;;;;5076666;28;20440;-81
2022/07/31 09:45:18;;;;;;;1.93;1.80;;;26.60;69.80;;;;;;5076343;28;20528;-81
2022/07/31 09:47:45;;;;;;;1.60;1.50;;;26.60;69.80;;;;;;5076460;28;20448;-81
2022/07/31 09:50:12;;;;;;;1.43;1.33;;;26.60;69.80;;;;;;5076350;28;20932;-81
2022/07/31 09:52:39;;;;;;;1.40;1.30;;;26.60;69.80;;;;;;5076066;28;21020;-81
2022/07/31 09:55:08;;;;;;;1.50;1.40;;;26.60;69.80;;;;;;5076430;28;20447;-81
2022/07/31 09:57:38;;;;;;;1.40;1.30;;;26.60;69.80;;;;;;5076248;28;20437;-91
2022/07/31 10:00:07;;;;;;;2.10;1.90;;;26.50;69.70;;;;;;5076029;28;20499;-91
2022/07/31 10:02:36;;;;;;;1.70;1.60;;;26.60;69.80;;;;;;5075986;28;20437;-81
2022/07/31 10:05:04;;;;;;;2.70;1.27;;;26.60;69.80;;;;;;5076233;28;20448;-82
2022/07/31 10:07:34;;;;;;;1.60;1.40;;;26.60;69.80;;;;;;5075895;28;20523;-81
2022/07/31 10:10:02;;;;;;;1.70;1.60;;;26.60;69.80;;;;;;5075792;28;20559;-81
2022/07/31 10:12:31;;;;;;;1.60;1.50;;;26.60;69.80;;;;;;5075560;28;20488;-81
2022/07/31 10:15:05;;;;;;;1.93;1.53;;;26.60;69.80;;;;;;5075995;28;20933;-81
2022/07/31 10:17:36;;;;;;;1.53;1.43;;;26.60;69.70;;;;;;5075911;28;20483;-81
2022/07/31 10:20:05;;;;;;;1.43;1.33;;;26.60;69.80;;;;;;5076383;28;20846;-81
2022/07/31 10:22:38;;;;;;;2.20;1.63;;;26.60;69.80;;;;;;5075905;28;20437;-81
2022/07/31 10:25:07;;;;;;;1.70;1.60;;;26.60;69.80;;;;;;5075941;28;20844;-83
2022/07/31 10:27:36;;;;;;;1.53;1.43;;;26.60;69.80;;;;;;5075124;28;20532;-81
2022/07/31 10:30:06;;;;;;;1.40;1.30;;;26.60;69.80;;;;;;5075493;28;20488;-81
2022/07/31 10:32:33;;;;;;;1.30;1.20;;;26.60;69.80;;;;;;5075253;28;20563;-81
2022/07/31 10:35:02;;;;;;;1.57;1.47;;;26.60;69.80;;;;;;5075436;28;20540;-81
2022/07/31 10:37:34;;;;;;;1.40;1.30;;;26.60;69.80;;;;;;5075488;28;20528;-92
2022/07/31 10:40:08;;;;;;;1.63;1.20;;;26.60;69.80;;;;;;5075097;28;20532;-81
2022/07/31 10:42:42;;;;;;;1.40;1.30;;;26.60;69.80;;;;;;5075328;28;20477;-81
2022/07/31 10:45:13;;;;;;;1.50;1.30;;;26.60;69.80;;;;;;5075340;28;20459;-81
2022/07/31 10:47:40;;;;;;;1.50;1.40;;;26.60;69.80;;;;;;5075129;28;20441;-81
2022/07/31 10:50:07;;;;;;;1.60;1.50;;;26.60;69.80;;;;;;5075249;28;20477;-81
2022/07/31 10:52:37;;;;;;;1.20;1.10;;;26.60;69.90;;;;;;5075025;28;20537;-81
2022/07/31 10:55:15;;;;;;;1.60;1.50;;;26.60;69.90;;;;;;5075391;28;20484;-81
2022/07/31 10:57:43;;;;;;;1.37;1.27;;;26.60;69.80;;;;;;5075422;28;20451;-82
2022/07/31 11:00:13;;;;;;;1.40;1.30;;;26.60;69.90;;;;;;5075162;28;20485;-81
2022/07/31 11:02:40;;;;;;;1.23;1.13;;;26.60;70.00;;;;;;5075046;28;20480;-81
2022/07/31 11:05:09;;;;;;;1.37;1.27;;;26.60;70.00;;;;;;5075143;28;20520;-81
2022/07/31 11:07:36;;;;;;;1.10;1.00;;;26.60;70.00;;;;;;5074809;28;20485;-80
2022/07/31 11:10:15;;;;;;;1.33;1.23;;;26.60;70.90;;;;;;5074618;28;20519;-81
2022/07/31 11:12:43;;;;;;;1.30;1.07;;;26.60;70.00;;;;;;5074674;28;21006;-81
2022/07/31 11:15:24;;;;;;;4.80;1.60;;;26.60;70.00;;;;;;5074919;28;20955;-81
2022/07/31 11:17:52;;;;;;;1.63;1.53;;;26.60;70.00;;;;;;5074958;28;20512;-81
2022/07/31 11:20:25;;;;;;;1.57;1.10;;;26.60;70.10;;;;;;5074853;28;20464;-81
2022/07/31 11:23:00;;;;;;;1.37;1.27;;;26.60;70.00;;;;;;5074600;28;20528;-81
2022/07/31 11:25:29;;;;;;;1.30;1.20;;;26.60;70.10;;;;;;5074726;28;20611;-80
2022/07/31 11:27:57;;;;;;;1.60;1.50;;;26.60;70.10;;;;;;5073934;28;20443;-81
2022/07/31 11:30:25;;;;;;;1.50;1.40;;;26.60;70.10;;;;;;5074539;28;20471;-81
2022/07/31 11:32:53;;;;;;;1.40;1.30;;;26.60;70.10;;;;;;5074137;28;20583;-81
2022/07/31 11:35:31;;;;;;;1.67;1.47;;;26.60;70.10;;;;;;5074334;28;20433;-81
2022/07/31 11:37:58;;;;;;;1.80;1.70;;;26.60;70.10;;;;;;5074226;28;20527;-81
2022/07/31 11:40:25;;;;;;;1.30;1.20;;;26.60;70.10;;;;;;5074237;28;20483;-81
2022/07/31 11:42:53;;;;;;;1.53;1.20;;;26.60;70.20;;;;;;5074214;28;20524;-81
2022/07/31 11:45:20;;;;;;;1.27;1.17;;;26.60;70.20;;;;;;5074365;28;20468;-81
2022/07/31 11:47:50;;;;;;;1.30;1.20;;;26.60;70.20;;;;;;5074379;28;20468;-81
2022/07/31 11:50:17;;;;;;;1.30;1.20;;;26.60;70.20;;;;;;5074129;28;20437;-81
2022/07/31 11:52:46;;;;;;;1.20;1.10;;;26.60;70.20;;;;;;5073326;28;20484;-81
2022/07/31 11:55:15;;;;;;;1.30;1.10;;;26.60;70.20;;;;;;5073902;28;20441;-81
2022/07/31 11:57:43;;;;;;;1.30;1.20;;;26.60;70.20;;;;;;5073965;28;20540;-81
2022/07/31 12:00:12;;;;;;;1.10;1.00;;;26.60;70.20;;;;;;5073796;28;20548;-81
2022/07/31 12:02:43;;;;;;;1.30;1.20;;;26.60;70.30;;;;;;5074052;28;20528;-81
2022/07/31 12:05:13;;;;;;;1.20;1.10;;;26.60;70.30;;;;;;5073804;28;20920;-80
2022/07/31 12:07:41;;;;;;;1.40;1.30;;;26.60;71.20;;;;;;5073480;28;20437;-81
2022/07/31 12:10:10;;;;;;;1.30;1.20;;;26.60;70.40;;;;;;5073933;28;20468;-81
2022/07/31 12:12:38;;;;;;;1.57;1.40;;;26.60;70.30;;;;;;5073498;28;20576;-81
2022/07/31 12:15:17;;;;;;;2.70;1.30;;;26.60;70.30;;;;;;5073655;28;20449;-81
2022/07/31 12:17:44;;;;;;;1.20;1.10;;;26.60;70.30;;;;;;5073601;28;20544;-81
2022/07/31 12:20:13;;;;;;;1.27;1.17;;;26.60;70.30;;;;;;5073477;28;20453;-81
2022/07/31 12:22:41;;;;;;;1.60;1.30;;;26.60;70.40;;;;;;5073860;28;20437;-81
2022/07/31 12:25:11;;;;;;;1.20;1.00;;;26.60;70.40;;;;;;5073595;28;20441;-81
2022/07/31 12:27:38;;;;;;;1.30;1.20;;;26.60;70.40;;;;;;5073547;28;20548;-82
2022/07/31 12:30:16;;;;;;;1.33;1.10;;;26.60;70.40;;;;;;5073540;28;20878;-81
2022/07/31 12:32:43;;;;;;;1.47;1.37;;;26.60;70.40;;;;;;5073351;28;20519;-81
2022/07/31 12:35:10;;;;;;;1.20;1.10;;;26.60;70.50;;;;;;5073587;28;20436;-92
2022/07/31 12:37:46;;;;;;;1.30;1.20;;;26.60;70.50;;;;;;5073369;28;20946;-81
2022/07/31 12:40:24;;;;;;;1.30;1.20;;;26.60;70.50;;;;;;5073328;28;20931;-81
2022/07/31 12:42:51;;;;;;;1.50;1.17;;;26.60;70.50;;;;;;5073428;28;20873;-81
2022/07/31 12:45:30;;;;;;;1.20;1.10;;;26.60;70.60;;;;;;5073086;28;20555;-81
2022/07/31 12:47:57;;;;;;;1.70;1.10;;;26.60;70.60;;;;;;5073272;28;20472;-81
2022/07/31 12:50:26;;;;;;;1.20;1.10;;;26.60;70.60;;;;;;5073226;28;20464;-81
2022/07/31 12:52:56;;;;;;;1.50;1.37;;;26.60;70.60;;;;;;5072914;28;20492;-92
2022/07/31 12:55:23;;;;;;;1.20;1.10;;;26.60;70.70;;;;;;5073257;28;20955;-81
2022/07/31 12:57:50;;;;;;;1.20;1.10;;;26.60;70.60;;;;;;5073077;28;20944;-81
2022/07/31 13:00:18;;;;;;;1.20;1.10;;;26.60;70.70;;;;;;5072554;28;20542;-80
2022/07/31 13:02:45;;;;;;;1.30;1.20;;;26.60;70.70;;;;;;5072948;28;20476;-81
2022/07/31 13:05:12;;;;;;;1.27;1.17;;;26.60;70.70;;;;;;5077241;28;20877;-90
2022/07/31 13:07:38;;;;;;;1.40;1.30;;;26.60;70.70;;;;;;5077127;28;20536;-81
2022/07/31 13:10:08;;;;;;;1.53;1.40;;;26.60;70.70;;;;;;5077037;28;20550;-81
2022/07/31 13:12:35;;;;;;;1.17;1.07;;;26.60;70.70;;;;;;5076839;28;20515;-91
2022/07/31 13:15:02;;;;;;;1.20;1.10;;;26.60;70.70;;;;;;5076935;28;20445;-81
2022/07/31 13:17:29;;;;;;;1.33;1.23;;;26.60;70.80;;;;;;5077209;28;20544;-81
2022/07/31 13:19:56;;;;;;;1.50;1.40;;;26.70;70.80;;;;;;5076963;28;20448;-81
2022/07/31 13:22:23;;;;;;;1.40;1.30;;;26.60;70.80;;;;;;5076901;28;20451;-81
2022/07/31 13:24:51;;;;;;;1.30;1.20;;;26.60;70.80;;;;;;5076792;28;20443;-81
2022/07/31 13:27:20;;;;;;;1.10;1.00;;;26.70;70.80;;;;;;5076643;28;20551;-81
2022/07/31 13:29:47;;;;;;;1.57;1.20;;;26.70;70.80;;;;;;5076762;28;20463;-81
2022/07/31 13:32:14;;;;;;;1.20;1.10;;;26.60;70.80;;;;;;5076555;28;20987;-81
2022/07/31 13:34:41;;;;;;;1.30;1.20;;;26.60;70.80;;;;;;5076688;28;20923;-81